createdAt,value
2023-04-05T00:02:00.466Z,97600.31
2023-04-05T00:04:28.813Z,97583.94
2023-04-05T00:06:57.448Z,97589.97
2023-04-05T00:09:24.005Z,97587.31
2023-04-05T00:11:50.720Z,97589.00
2023-04-05T00:14:17.178Z,97579.50
2023-04-05T00:16:43.729Z,97578.63
2023-04-05T00:19:13.077Z,97574.25
2023-04-05T00:21:40.518Z,97575.09
2023-04-05T00:24:08.039Z,97581.13
2023-04-05T00:26:36.195Z,97579.38
2023-04-05T00:29:02.802Z,97574.22
2023-04-05T00:31:30.245Z,97569.06
2023-04-05T00:33:56.801Z,97564.91
2023-04-05T00:36:23.357Z,97564.94
2023-04-05T00:38:49.855Z,97562.50
2023-04-05T00:41:16.865Z,97564.22
2023-04-05T00:43:43.620Z,97561.69
2023-04-05T00:46:10.784Z,97562.66
2023-04-05T00:48:38.561Z,97561.78
2023-04-05T00:51:09.288Z,97562.66
2023-04-05T00:53:36.401Z,97567.03
2023-04-05T00:56:04.047Z,97567.03
2023-04-05T00:58:30.670Z,97561.00
2023-04-05T01:01:01.711Z,97568.78
2023-04-05T01:03:31.962Z,97571.50
2023-04-05T01:06:20.884Z,97558.53
2023-04-05T01:09:13.125Z,97559.47
2023-04-05T01:11:42.756Z,97563.00
2023-04-05T01:14:09.258Z,97560.47
2023-04-05T01:16:35.823Z,97558.00
2023-04-05T01:19:03.910Z,97558.06
2023-04-05T01:21:58.241Z,97557.22
2023-04-05T01:24:46.853Z,97548.66
2023-04-05T01:28:05.549Z,97543.56
2023-04-05T01:30:40.002Z,97546.16
2023-04-05T01:33:44.405Z,97544.44
2023-04-05T01:36:43.635Z,97548.78
2023-04-05T01:39:13.826Z,97545.31
2023-04-05T01:41:40.714Z,97540.22
2023-04-05T01:44:07.404Z,97542.81
2023-04-05T01:46:34.270Z,97546.28
2023-04-05T01:49:00.768Z,97538.47
2023-04-05T01:51:28.007Z,97543.59
2023-04-05T01:53:54.541Z,97541.88
2023-04-05T01:56:21.241Z,97532.44
2023-04-05T01:58:47.749Z,97535.06
2023-04-05T02:01:14.445Z,97534.25
2023-04-05T02:03:41.060Z,97536.03
2023-04-05T02:06:07.687Z,97533.53
2023-04-05T02:08:34.226Z,97536.13
2023-04-05T02:11:00.945Z,97531.81
2023-04-05T02:13:27.439Z,97525.00
2023-04-05T02:15:53.971Z,97524.28
2023-04-05T02:18:30.283Z,97531.28
2023-04-05T02:21:08.457Z,97521.88
2023-04-05T02:23:35.035Z,97519.41
2023-04-05T02:26:01.667Z,97520.38
2023-04-05T02:28:28.385Z,97532.56
2023-04-05T02:30:55.599Z,97518.03
2023-04-05T02:33:22.827Z,97520.69
2023-04-05T02:35:51.647Z,97525.94
2023-04-05T02:38:18.484Z,97528.53
2023-04-05T02:40:51.457Z,97526.88
2023-04-05T02:43:18.031Z,97525.19
2023-04-05T02:45:46.709Z,97524.31
2023-04-05T02:48:13.705Z,97521.69
2023-04-05T02:50:40.597Z,97528.69
2023-04-05T02:53:07.310Z,97515.00
2023-04-05T02:55:34.147Z,97521.97
2023-04-05T02:58:01.593Z,97528.06
2023-04-05T03:00:28.172Z,97524.66
2023-04-05T03:02:55.890Z,97522.13
2023-04-05T03:05:22.636Z,97515.34
2023-04-05T03:07:51.262Z,97520.63
2023-04-05T03:10:18.939Z,97523.28
2023-04-05T03:12:46.243Z,97524.25
2023-04-05T03:15:12.815Z,97514.84
2023-04-05T03:17:39.358Z,97518.38
2023-04-05T03:20:07.245Z,97512.47
2023-04-05T03:22:33.765Z,97512.59
2023-04-05T03:25:00.264Z,97512.75
2023-04-05T03:27:27.295Z,97501.66
2023-04-05T03:29:53.780Z,97507.00
2023-04-05T03:32:20.285Z,97513.16
2023-04-05T03:34:46.786Z,97513.25
2023-04-05T03:37:13.333Z,97502.16
2023-04-05T03:39:39.804Z,97501.41
2023-04-05T03:42:06.323Z,97504.94
2023-04-05T03:44:32.889Z,97507.66
2023-04-05T03:46:59.570Z,97502.56
2023-04-05T03:49:26.290Z,97494.06
2023-04-05T03:51:52.840Z,97502.75
2023-04-05T03:54:19.332Z,97511.47
2023-04-05T03:56:46.067Z,97507.19
2023-04-05T03:59:12.644Z,97512.47
2023-04-05T04:01:39.394Z,97515.94
2023-04-05T04:04:06.153Z,97509.09
2023-04-05T04:06:32.722Z,97510.88
2023-04-05T04:08:59.283Z,97506.63
2023-04-05T04:11:26.077Z,97507.63
2023-04-05T04:13:53.145Z,97511.16
2023-04-05T04:16:19.674Z,97510.31
2023-04-05T04:18:46.247Z,97506.94
2023-04-05T04:21:13.561Z,97507.03
2023-04-05T04:23:40.108Z,97514.84
2023-04-05T04:26:06.586Z,97506.25
2023-04-05T04:28:34.824Z,97508.03
2023-04-05T04:31:04.925Z,97504.63
2023-04-05T04:33:31.509Z,97508.13
2023-04-05T04:35:58.053Z,97509.84
2023-04-05T04:38:26.088Z,97504.69
2023-04-05T04:40:53.825Z,97508.09
2023-04-05T04:43:27.318Z,97503.00
2023-04-05T04:45:56.417Z,97507.31
2023-04-05T04:48:22.977Z,97512.47
2023-04-05T04:50:52.263Z,97513.34
2023-04-05T04:53:18.872Z,97517.66
2023-04-05T04:55:45.848Z,97518.53
2023-04-05T04:58:13.372Z,97515.94
2023-04-05T05:00:44.469Z,97514.22
2023-04-05T05:03:11.801Z,97516.75
2023-04-05T05:05:46.870Z,97515.00
2023-04-05T05:08:14.119Z,97514.81
2023-04-05T05:10:41.128Z,97519.81
2023-04-05T05:13:07.912Z,97520.50
2023-04-05T05:15:34.464Z,97518.53
2023-04-05T05:18:01.029Z,97515.69
2023-04-05T05:20:28.590Z,97516.25
2023-04-05T05:22:55.660Z,97518.47
2023-04-05T05:25:22.424Z,97518.91
2023-04-05T05:27:50.966Z,97516.72
2023-04-05T05:30:18.487Z,97515.38
2023-04-05T05:32:45.036Z,97523.53
2023-04-05T05:35:11.555Z,97517.03
2023-04-05T05:37:38.264Z,97511.28
2023-04-05T05:40:05.288Z,97519.38
2023-04-05T05:42:34.726Z,97520.69
2023-04-05T05:45:05.050Z,97523.66
2023-04-05T05:47:32.081Z,97526.59
2023-04-05T05:49:58.648Z,97519.00
2023-04-05T05:52:25.252Z,97521.78
2023-04-05T05:54:51.907Z,97522.19
2023-04-05T05:57:18.443Z,97521.91
2023-04-05T05:59:44.914Z,97517.94
2023-04-05T06:02:11.459Z,97514.28
2023-04-05T06:04:38.050Z,97512.06
2023-04-05T06:07:04.614Z,97511.66
2023-04-05T06:09:33.952Z,97509.06
2023-04-05T06:12:01.037Z,97510.00
2023-04-05T06:14:29.746Z,97508.56
2023-04-05T06:16:56.490Z,97517.41
2023-04-05T06:19:23.316Z,97504.88
2023-04-05T06:21:49.923Z,97511.81
2023-04-05T06:24:16.434Z,97499.94
2023-04-05T06:26:43.114Z,97504.06
2023-04-05T06:29:09.696Z,97501.34
2023-04-05T06:31:36.719Z,97506.38
2023-04-05T06:34:03.485Z,97505.59
2023-04-05T06:36:32.066Z,97505.88
2023-04-05T06:38:59.527Z,97504.75
2023-04-05T06:41:27.682Z,97501.78
2023-04-05T06:43:54.857Z,97506.50
2023-04-05T06:46:21.541Z,97501.00
2023-04-05T06:48:49.883Z,97502.97
2023-04-05T06:51:16.571Z,97500.25
2023-04-05T06:53:43.150Z,97509.19
2023-04-05T06:56:09.800Z,97503.88
2023-04-05T06:58:36.834Z,97502.09
2023-04-05T07:01:03.433Z,97498.25
2023-04-05T07:03:30.019Z,97497.03
2023-04-05T07:05:59.199Z,97503.28
2023-04-05T07:08:27.592Z,97499.94
2023-04-05T07:10:54.244Z,97493.72
2023-04-05T07:13:22.723Z,97496.34
2023-04-05T07:15:49.311Z,97499.53
2023-04-05T07:18:15.948Z,97498.69
2023-04-05T07:20:42.859Z,97486.75
2023-04-05T07:23:09.747Z,97492.63
2023-04-05T07:25:36.323Z,97496.03
2023-04-05T07:28:02.859Z,97500.75
2023-04-05T07:30:31.830Z,97504.06
2023-04-05T07:32:58.622Z,97495.84
2023-04-05T07:35:25.428Z,97503.13
2023-04-05T07:37:52.446Z,97503.66
2023-04-05T07:40:19.156Z,97496.72
2023-04-05T07:42:45.836Z,97499.75
2023-04-05T07:45:12.363Z,97497.81
2023-04-05T07:47:39.041Z,97503.81
2023-04-05T07:50:07.168Z,97503.47
2023-04-05T07:52:34.340Z,97505.63
2023-04-05T07:55:00.956Z,97502.78
2023-04-05T07:57:27.474Z,97499.09
2023-04-05T07:59:55.766Z,97497.38
2023-04-05T08:02:22.481Z,97498.19
2023-04-05T08:04:49.047Z,97494.94
2023-04-05T08:07:15.848Z,97495.72
2023-04-05T08:09:42.340Z,97485.16
2023-04-05T08:12:08.922Z,97485.78
2023-04-05T08:14:35.676Z,97492.13
2023-04-05T08:17:02.171Z,97494.59
2023-04-05T08:19:28.718Z,97489.75
2023-04-05T08:21:55.295Z,97488.91
2023-04-05T08:24:21.888Z,97480.69
2023-04-05T08:26:48.814Z,97486.69
2023-04-05T08:29:15.279Z,97486.00
2023-04-05T08:31:41.774Z,97485.06
2023-04-05T08:34:08.547Z,97481.88
2023-04-05T08:36:35.137Z,97480.69
2023-04-05T08:39:01.645Z,97479.75
2023-04-05T08:41:41.359Z,97479.66
2023-04-05T08:44:10.648Z,97485.19
2023-04-05T08:46:37.706Z,97484.28
2023-04-05T08:49:08.340Z,97487.97
2023-04-05T08:51:41.757Z,97477.06
2023-04-05T08:54:08.554Z,97478.94
2023-04-05T08:56:36.252Z,97472.72
2023-04-05T08:59:05.222Z,97470.25
2023-04-05T09:01:33.057Z,97483.13
2023-04-05T09:04:09.585Z,97483.19
2023-04-05T09:06:36.764Z,97476.03
2023-04-05T09:09:07.978Z,97485.75
2023-04-05T09:11:35.442Z,97479.47
2023-04-05T09:14:06.067Z,97475.59
2023-04-05T09:16:37.036Z,97466.44
2023-04-05T09:19:04.167Z,97472.75
2023-04-05T09:21:30.782Z,97476.03
2023-04-05T09:23:57.316Z,97466.63
2023-04-05T09:26:24.910Z,97467.22
2023-04-05T09:28:52.232Z,97470.88
2023-04-05T09:31:35.494Z,97469.88
2023-04-05T09:34:05.912Z,97466.94
2023-04-05T09:36:36.472Z,97467.66
2023-04-05T09:39:08.299Z,97469.03
2023-04-05T09:41:36.048Z,97471.69
2023-04-05T09:44:03.036Z,97462.97
2023-04-05T09:46:39.602Z,97463.31
2023-04-05T09:49:07.959Z,97458.84
2023-04-05T09:51:35.758Z,97459.97
2023-04-05T09:54:05.445Z,97455.22
2023-04-05T09:56:35.751Z,97459.13
2023-04-05T09:59:07.748Z,97473.59
2023-04-05T10:01:34.449Z,97464.69
2023-04-05T10:04:01.246Z,97471.38
2023-04-05T10:06:42.184Z,97466.00
2023-04-05T10:09:10.268Z,97461.66
2023-04-05T10:11:38.339Z,97466.22
2023-04-05T10:14:07.332Z,97462.22
2023-04-05T10:16:57.657Z,97446.31
2023-04-05T10:19:32.334Z,97450.84
2023-04-05T10:22:02.632Z,97439.41
2023-04-05T10:24:40.669Z,97439.34
2023-04-05T10:27:13.036Z,97432.09
2023-04-05T10:29:56.506Z,97440.09
2023-04-05T10:32:52.347Z,97437.16
2023-04-05T10:35:49.788Z,97430.31
2023-04-05T10:38:26.820Z,97436.50
2023-04-05T10:41:15.066Z,97419.44
2023-04-05T10:43:42.657Z,97417.94
2023-04-05T10:46:10.978Z,97416.22
2023-04-05T10:49:01.857Z,97410.41
2023-04-05T10:51:29.690Z,97412.56
2023-04-05T10:53:57.105Z,97406.31
2023-04-05T10:56:25.108Z,97408.91
2023-04-05T10:58:53.144Z,97408.19
2023-04-05T11:01:21.466Z,97409.53
2023-04-05T11:03:49.851Z,97405.19
2023-04-05T11:06:22.475Z,97405.41
2023-04-05T11:08:52.991Z,97396.22
2023-04-05T11:11:22.497Z,97382.91
2023-04-05T11:13:56.673Z,97395.75
2023-04-05T11:16:38.022Z,97395.63
2023-04-05T11:19:04.651Z,97387.19
2023-04-05T11:21:31.444Z,97382.41
2023-04-05T11:24:15.241Z,97387.50
2023-04-05T11:26:47.850Z,97383.34
2023-04-05T11:29:16.302Z,97379.44
2023-04-05T11:32:11.566Z,97381.94
2023-04-05T11:34:38.226Z,97380.91
2023-04-05T11:37:04.774Z,97373.38
2023-04-05T11:39:31.353Z,97373.53
2023-04-05T11:42:12.272Z,97371.94
2023-04-05T11:44:46.932Z,97379.75
2023-04-05T11:47:16.938Z,97377.38
2023-04-05T11:49:43.703Z,97367.66
2023-04-05T11:52:12.517Z,97367.16
2023-04-05T11:54:39.925Z,97368.63
2023-04-05T11:57:06.911Z,97364.91
2023-04-05T11:59:36.560Z,97361.38
2023-04-05T12:02:08.261Z,97359.66
2023-04-05T12:04:36.210Z,97354.22
2023-04-05T12:07:10.999Z,97358.78
2023-04-05T12:10:01.327Z,97354.44
2023-04-05T12:12:28.218Z,97350.44
2023-04-05T12:15:05.061Z,97361.13
2023-04-05T12:17:46.704Z,97355.22
2023-04-05T12:20:19.757Z,97346.50
2023-04-05T12:22:51.121Z,97339.63
2023-04-05T12:25:19.820Z,97343.56
2023-04-05T12:27:47.006Z,97337.69
2023-04-05T12:30:16.687Z,97339.94
2023-04-05T12:32:45.781Z,97334.38
2023-04-05T12:35:21.941Z,97332.25
2023-04-05T12:37:51.127Z,97338.31
2023-04-05T12:40:24.518Z,97337.44
2023-04-05T12:42:52.218Z,97342.19
2023-04-05T12:45:18.877Z,97338.31
2023-04-05T12:47:50.714Z,97335.97
2023-04-05T12:50:18.894Z,97325.91
2023-04-05T12:52:59.412Z,97319.38
2023-04-05T12:55:30.190Z,97322.41
2023-04-05T12:58:01.778Z,97315.66
2023-04-05T13:00:30.045Z,97323.22
2023-04-05T13:02:58.200Z,97323.00
2023-04-05T13:05:30.358Z,97323.00
2023-04-05T13:07:58.337Z,97312.84
2023-04-05T13:10:26.008Z,97319.25
2023-04-05T13:12:52.587Z,97315.19
2023-04-05T13:15:19.368Z,97313.78
2023-04-05T13:17:49.883Z,97314.50
2023-04-05T13:20:18.018Z,97305.22
2023-04-05T13:22:45.509Z,97301.72
2023-04-05T13:25:12.363Z,97297.22
2023-04-05T13:27:38.949Z,97297.22
2023-04-05T13:30:05.972Z,97298.72
2023-04-05T13:32:33.559Z,97301.81
2023-04-05T13:35:00.401Z,97302.69
2023-04-05T13:37:26.928Z,97304.56
2023-04-05T13:39:53.455Z,97301.22
2023-04-05T13:42:20.467Z,97308.47
2023-04-05T13:44:46.965Z,97302.56
2023-04-05T13:47:14.940Z,97306.66
2023-04-05T13:49:41.970Z,97296.84
2023-04-05T13:52:08.627Z,97287.97
2023-04-05T13:54:35.530Z,97292.81
2023-04-05T13:57:02.008Z,97299.41
2023-04-05T13:59:28.577Z,97287.69
2023-04-05T14:01:55.385Z,97295.88
2023-04-05T14:04:22.094Z,97295.44
2023-04-05T14:06:48.616Z,97289.78
2023-04-05T14:09:15.448Z,97289.38
2023-04-05T14:11:42.217Z,97286.31
2023-04-05T14:14:08.746Z,97284.03
2023-04-05T14:16:35.532Z,97284.72
2023-04-05T14:19:02.141Z,97290.13
2023-04-05T14:21:28.752Z,97298.50
2023-04-05T14:23:57.926Z,97290.44
2023-04-05T14:26:26.214Z,97292.31
2023-04-05T14:28:53.448Z,97294.81
2023-04-05T14:31:20.403Z,97289.16
2023-04-05T14:33:47.008Z,97294.03
2023-04-05T14:36:13.651Z,97280.75
2023-04-05T14:38:40.218Z,97280.84
2023-04-05T14:41:06.857Z,97283.81
2023-04-05T14:43:33.428Z,97286.44
2023-04-05T14:46:00.101Z,97286.03
2023-04-05T14:48:28.070Z,97281.47
2023-04-05T14:50:54.656Z,97276.84
2023-04-05T14:53:21.425Z,97278.63
2023-04-05T14:55:47.996Z,97283.66
2023-04-05T14:58:14.764Z,97287.13
2023-04-05T15:00:41.587Z,97286.13
2023-04-05T15:03:08.982Z,97281.34
2023-04-05T15:05:35.784Z,97284.81
2023-04-05T15:08:02.611Z,97276.91
2023-04-05T15:10:29.209Z,97278.81
2023-04-05T15:12:56.645Z,97275.63
2023-04-05T15:15:23.192Z,97281.88
2023-04-05T15:17:49.809Z,97274.28
2023-04-05T15:20:16.456Z,97273.69
2023-04-05T15:22:43.146Z,97278.19
2023-04-05T15:25:10.696Z,97273.06
2023-04-05T15:27:37.286Z,97276.56
2023-04-05T15:30:04.196Z,97276.28
2023-04-05T15:32:33.758Z,97276.22
2023-04-05T15:35:01.345Z,97273.59
2023-04-05T15:37:28.277Z,97279.78
2023-04-05T15:39:54.958Z,97271.13
2023-04-05T15:42:22.012Z,97271.22
2023-04-05T15:44:49.148Z,97274.13
2023-04-05T15:47:15.885Z,97273.56
2023-04-05T15:49:43.553Z,97275.53
2023-04-05T15:52:11.422Z,97273.81
2023-04-05T15:54:38.096Z,97279.44
2023-04-05T15:57:04.868Z,97271.94
2023-04-05T15:59:31.539Z,97280.25
2023-04-05T16:01:58.239Z,97273.59
2023-04-05T16:04:27.040Z,97275.53
2023-04-05T16:06:54.882Z,97281.22
2023-04-05T16:09:22.171Z,97274.56
2023-04-05T16:11:49.110Z,97277.53
2023-04-05T16:14:15.996Z,97277.88
2023-04-05T16:16:53.155Z,97281.78
2023-04-05T16:19:21.141Z,97277.75
2023-04-05T16:21:47.812Z,97275.38
2023-04-05T16:24:14.402Z,97283.94
2023-04-05T16:26:41.347Z,97290.28
2023-04-05T16:29:07.921Z,97282.75
2023-04-05T16:31:36.193Z,97280.47
2023-04-05T16:34:03.011Z,97279.03
2023-04-05T16:36:29.643Z,97295.09
2023-04-05T16:38:56.168Z,97281.06
2023-04-05T16:41:22.730Z,97281.38
2023-04-05T16:43:49.388Z,97281.63
2023-04-05T16:46:15.989Z,97292.53
2023-04-05T16:48:42.580Z,97284.28
2023-04-05T16:51:09.162Z,97289.00
2023-04-05T16:53:35.817Z,97280.63
2023-04-05T16:56:03.883Z,97285.50
2023-04-05T16:58:30.450Z,97292.84
2023-04-05T17:01:00.699Z,97290.53
2023-04-05T17:03:27.908Z,97292.69
2023-04-05T17:06:08.334Z,97293.09
2023-04-05T17:08:59.196Z,97293.47
2023-04-05T17:11:38.523Z,97292.13
2023-04-05T17:14:05.607Z,97294.34
2023-04-05T17:16:32.296Z,97295.66
2023-04-05T17:18:58.799Z,97297.97
2023-04-05T17:21:26.160Z,97303.63
2023-04-05T17:23:52.721Z,97306.69
2023-04-05T17:26:19.268Z,97300.13
2023-04-05T17:28:46.235Z,97305.78
2023-04-05T17:31:12.779Z,97306.00
2023-04-05T17:33:40.364Z,97314.22
2023-04-05T17:36:07.356Z,97310.19
2023-04-05T17:38:34.392Z,97308.13
2023-04-05T17:41:00.936Z,97304.25
2023-04-05T17:43:27.527Z,97315.38
2023-04-05T17:45:54.526Z,97317.69
2023-04-05T17:48:21.327Z,97319.78
2023-04-05T17:50:47.905Z,97317.38
2023-04-05T17:53:15.823Z,97324.44
2023-04-05T17:55:43.397Z,97321.16
2023-04-05T17:58:10.391Z,97323.09
2023-04-05T18:00:37.038Z,97320.13
2023-04-05T18:03:07.624Z,97325.69
2023-04-05T18:05:35.055Z,97325.94
2023-04-05T18:08:01.641Z,97330.56
2023-04-05T18:10:28.390Z,97327.59
2023-04-05T18:12:55.181Z,97335.81
2023-04-05T18:15:21.965Z,97341.53
2023-04-05T18:17:48.601Z,97339.44
2023-04-05T18:20:15.294Z,97342.50
2023-04-05T18:22:42.414Z,97344.84
2023-04-05T18:25:11.458Z,97353.91
2023-04-05T18:27:39.330Z,97355.16
2023-04-05T18:30:06.719Z,97349.50
2023-04-05T18:32:33.563Z,97366.50
2023-04-05T18:35:00.440Z,97373.72
2023-04-05T18:37:27.493Z,97374.16
2023-04-05T18:39:54.056Z,97372.78
2023-04-05T18:42:20.752Z,97381.81
2023-04-05T18:44:47.569Z,97382.22
2023-04-05T18:47:14.171Z,97389.53
2023-04-05T18:49:41.054Z,97388.88
2023-04-05T18:52:07.600Z,97389.84
2023-04-05T18:54:34.129Z,97391.72
2023-04-05T18:57:00.810Z,97389.34
2023-04-05T18:59:29.291Z,97378.44
2023-04-05T19:01:56.203Z,97386.69
2023-04-05T19:04:22.937Z,97389.72
2023-04-05T19:06:49.509Z,97386.41
2023-04-05T19:09:17.072Z,97397.13
2023-04-05T19:11:43.717Z,97397.41
2023-04-05T19:14:10.420Z,97407.25
2023-04-05T19:16:37.210Z,97403.09
2023-04-05T19:19:06.200Z,97397.94
2023-04-05T19:21:33.050Z,97398.13
2023-04-05T19:23:59.860Z,97405.22
2023-04-05T19:26:26.562Z,97408.03
2023-04-05T19:28:53.186Z,97404.75
2023-04-05T19:31:19.813Z,97407.56
2023-04-05T19:33:46.376Z,97411.09
2023-04-05T19:36:12.970Z,97414.03
2023-04-05T19:38:39.928Z,97409.88
2023-04-05T19:41:06.650Z,97414.31
2023-04-05T19:43:36.543Z,97416.19
2023-04-05T19:46:07.210Z,97418.88
2023-04-05T19:48:41.596Z,97412.09
2023-04-05T19:51:09.639Z,97416.78
2023-04-05T19:53:42.998Z,97418.63
2023-04-05T19:56:12.312Z,97415.47
2023-04-05T19:58:39.129Z,97415.50
2023-04-05T20:01:07.066Z,97417.31
2023-04-05T20:03:36.773Z,97417.41
2023-04-05T20:06:07.297Z,97417.41
2023-04-05T20:08:36.728Z,97422.69
2023-04-05T20:11:08.430Z,97410.69
2023-04-05T20:13:41.220Z,97416.00
2023-04-05T20:16:09.417Z,97417.72
2023-04-05T20:18:39.458Z,97419.50
2023-04-05T20:21:06.935Z,97411.91
2023-04-05T20:23:33.533Z,97418.75
2023-04-05T20:26:00.310Z,97417.94
2023-04-05T20:28:43.202Z,97413.75
2023-04-05T20:31:17.418Z,97419.97
2023-04-05T20:33:53.981Z,97414.00
2023-04-05T20:36:23.339Z,97415.69
2023-04-05T20:38:50.653Z,97416.66
2023-04-05T20:41:18.997Z,97413.25
2023-04-05T20:43:46.298Z,97409.03
2023-04-05T20:46:13.578Z,97414.38
2023-04-05T20:48:40.379Z,97412.66
2023-04-05T20:51:08.255Z,97410.19
2023-04-05T20:53:36.552Z,97413.88
2023-04-05T20:56:04.783Z,97407.91
2023-04-05T20:58:31.528Z,97412.13
2023-04-05T21:00:58.277Z,97412.19
2023-04-05T21:03:24.895Z,97411.28
2023-04-05T21:05:51.615Z,97410.41
2023-04-05T21:08:18.336Z,97411.31
2023-04-05T21:10:45.926Z,97413.28
2023-04-05T21:13:12.490Z,97420.28
2023-04-05T21:15:39.057Z,97411.66
2023-04-05T21:18:07.712Z,97412.59
2023-04-05T21:20:37.825Z,97417.03
2023-04-05T21:23:04.973Z,97411.94
2023-04-05T21:25:32.067Z,97419.56
2023-04-05T21:28:01.763Z,97424.72
2023-04-05T21:30:28.919Z,97412.84
2023-04-05T21:32:55.569Z,97420.66
2023-04-05T21:35:22.631Z,97424.28
2023-04-05T21:37:50.300Z,97414.06
2023-04-05T21:40:17.811Z,97420.06
2023-04-05T21:42:44.666Z,97421.91
2023-04-05T21:45:11.730Z,97419.44
2023-04-05T21:47:38.468Z,97419.47
2023-04-05T21:50:06.140Z,97425.47
2023-04-05T21:52:32.905Z,97428.06
2023-04-05T21:54:59.458Z,97424.69
2023-04-05T21:57:26.247Z,97426.38
2023-04-05T21:59:52.775Z,97429.16
2023-04-05T22:02:19.415Z,97430.06
2023-04-05T22:04:46.034Z,97428.31
2023-04-05T22:07:12.635Z,97423.16
2023-04-05T22:09:39.541Z,97421.47
2023-04-05T22:12:06.706Z,97431.13
2023-04-05T22:14:33.248Z,97428.59
2023-04-05T22:16:59.938Z,97433.69
2023-04-05T22:19:26.623Z,97435.50
2023-04-05T22:21:55.257Z,97439.94
2023-04-05T22:24:26.164Z,97433.88
2023-04-05T22:26:53.421Z,97439.19
2023-04-05T22:29:21.783Z,97434.94
2023-04-05T22:31:49.303Z,97439.28
2023-04-05T22:34:16.250Z,97428.94
2023-04-05T22:36:42.936Z,97441.94
2023-04-05T22:39:10.865Z,97441.97
2023-04-05T22:41:37.642Z,97440.28
2023-04-05T22:44:04.313Z,97440.38
2023-04-05T22:46:30.919Z,97432.75
2023-04-05T22:48:57.855Z,97432.69
2023-04-05T22:51:24.498Z,97443.06
2023-04-05T22:53:51.140Z,97441.44
2023-04-05T22:56:19.738Z,97447.53
2023-04-05T22:58:46.542Z,97449.22
2023-04-05T23:01:13.163Z,97444.13
2023-04-05T23:03:39.672Z,97440.69
2023-04-05T23:06:06.480Z,97436.41
2023-04-05T23:08:33.663Z,97445.06
2023-04-05T23:11:00.350Z,97435.63
2023-04-05T23:13:26.998Z,97439.09
2023-04-05T23:15:53.622Z,97435.63
2023-04-05T23:18:22.794Z,97441.66
2023-04-05T23:20:49.785Z,97440.75
2023-04-05T23:23:16.338Z,97440.75
2023-04-05T23:25:42.874Z,97441.56
2023-04-05T23:28:09.358Z,97438.22
2023-04-05T23:30:35.878Z,97437.41
2023-04-05T23:33:02.422Z,97439.97
2023-04-05T23:35:29.156Z,97435.78
2023-04-05T23:37:55.737Z,97438.34
2023-04-05T23:40:22.247Z,97430.69
2023-04-05T23:42:48.827Z,97442.78
2023-04-05T23:45:15.598Z,97428.25
2023-04-05T23:47:42.224Z,97443.00
2023-04-05T23:50:09.594Z,97436.19
2023-04-05T23:52:36.300Z,97433.50
2023-04-05T23:55:02.926Z,97437.78
2023-04-05T23:57:29.499Z,97440.34
2023-04-05T23:59:56.008Z,97435.34
